createdAt,value
2022-09-20T00:01:33.208Z,4.20
2022-09-20T00:04:06.877Z,3.90
2022-09-20T00:06:35.794Z,2.37
2022-09-20T00:09:05.290Z,1.43
2022-09-20T00:11:35.504Z,3.17
2022-09-20T00:14:05.957Z,3.77
2022-09-20T00:16:38.110Z,3.00
2022-09-20T00:19:09.093Z,2.47
2022-09-20T00:21:37.953Z,2.97
2022-09-20T00:24:07.174Z,2.50
2022-09-20T00:26:35.286Z,3.30
2022-09-20T00:29:04.048Z,2.17
2022-09-20T00:31:32.348Z,4.73
2022-09-20T00:34:18.406Z,2.43
2022-09-20T00:36:48.610Z,3.00
2022-09-20T00:39:17.422Z,4.63
2022-09-20T00:41:45.703Z,3.53
2022-09-20T00:44:43.819Z,3.63
2022-09-20T00:47:20.661Z,5.23
2022-09-20T00:49:50.747Z,5.03
2022-09-20T00:52:21.565Z,4.03
2022-09-20T00:54:50.424Z,3.83
2022-09-20T00:57:18.919Z,4.23
2022-09-20T00:59:49.448Z,4.87
2022-09-20T01:02:22.543Z,3.90
2022-09-20T01:04:51.636Z,4.17
2022-09-20T01:07:23.510Z,4.70
2022-09-20T01:09:52.965Z,2.67
2022-09-20T01:12:25.326Z,4.20
2022-09-20T01:14:54.849Z,3.43
2022-09-20T01:17:26.476Z,3.47
2022-09-20T01:20:05.742Z,2.10
2022-09-20T01:22:42.410Z,2.03
2022-09-20T01:25:16.502Z,2.63
2022-09-20T01:27:48.289Z,3.40
2022-09-20T01:30:19.313Z,3.57
2022-09-20T01:32:57.629Z,2.37
2022-09-20T01:35:28.741Z,2.60
2022-09-20T01:38:23.719Z,3.93
2022-09-20T01:41:04.199Z,2.93
2022-09-20T01:43:38.857Z,2.50
2022-09-20T01:46:22.881Z,2.53
2022-09-20T01:48:57.073Z,2.00
2022-09-20T01:52:09.104Z,2.60
2022-09-20T01:55:14.078Z,2.60
2022-09-20T01:58:27.188Z,3.00
2022-09-20T02:01:20.578Z,3.03
2022-09-20T02:04:24.321Z,3.50
2022-09-20T02:07:19.531Z,2.97
2022-09-20T02:10:04.017Z,2.20
2022-09-20T02:12:47.342Z,2.60
2022-09-20T02:15:30.822Z,2.37
2022-09-20T02:18:10.378Z,2.50
2022-09-20T02:20:50.075Z,2.93
2022-09-20T02:23:31.406Z,3.13
2022-09-20T02:26:12.731Z,2.67
2022-09-20T02:28:55.739Z,2.17
2022-09-20T02:31:34.684Z,3.53
2022-09-20T02:34:24.032Z,2.87
2022-09-20T02:37:09.337Z,2.50
2022-09-20T02:39:45.594Z,4.13
2022-09-20T02:42:18.705Z,3.43
2022-09-20T02:44:58.427Z,2.00
2022-09-20T02:47:33.164Z,2.70
2022-09-20T02:50:22.138Z,1.80
2022-09-20T02:53:04.550Z,3.67
2022-09-20T02:55:41.650Z,3.53
2022-09-20T02:58:24.216Z,3.87
2022-09-20T03:00:59.592Z,4.27
2022-09-20T03:03:39.338Z,3.27
2022-09-20T03:06:13.724Z,1.70
2022-09-20T03:08:52.045Z,1.80
2022-09-20T03:11:28.566Z,2.93
2022-09-20T03:14:10.649Z,2.47
2022-09-20T03:16:52.475Z,3.27
2022-09-20T03:19:44.437Z,2.20
2022-09-20T03:22:28.119Z,6.77
2022-09-20T03:25:15.398Z,2.83
2022-09-20T03:27:50.948Z,1.50
2022-09-20T03:30:30.067Z,2.53
2022-09-20T03:33:08.829Z,2.03
2022-09-20T03:35:46.917Z,3.13
2022-09-20T03:38:34.646Z,6.30
2022-09-20T03:41:16.962Z,3.83
2022-09-20T03:44:09.022Z,2.70
2022-09-20T03:46:46.166Z,4.97
2022-09-20T03:49:42.142Z,3.40
2022-09-20T03:52:29.888Z,3.27
2022-09-20T03:55:28.513Z,2.27
2022-09-20T03:58:21.971Z,2.20
2022-09-20T04:01:14.878Z,3.40
2022-09-20T04:03:50.748Z,1.47
2022-09-20T04:06:49.741Z,1.90
2022-09-20T04:09:49.801Z,2.53
2022-09-20T04:12:29.141Z,2.87
2022-09-20T04:15:06.955Z,2.97
2022-09-20T04:17:44.763Z,1.97
2022-09-20T04:20:21.203Z,2.00
2022-09-20T04:22:53.052Z,1.70
2022-09-20T04:25:24.860Z,2.00
2022-09-20T04:27:59.625Z,6.17
2022-09-20T04:30:31.098Z,3.40
2022-09-20T04:33:02.744Z,3.20
2022-09-20T04:36:00.291Z,3.57
2022-09-20T04:38:29.368Z,4.77
2022-09-20T04:41:20.601Z,6.40
2022-09-20T04:44:35.253Z,6.00
2022-09-20T04:47:38.279Z,6.13
2022-09-20T04:50:30.916Z,5.00
2022-09-20T04:53:44.552Z,2.90
2022-09-20T04:56:22.230Z,2.13
2022-09-20T04:59:07.004Z,4.03
2022-09-20T05:02:18.185Z,2.03
2022-09-20T05:05:26.890Z,3.27
2022-09-20T05:08:29.900Z,5.67
2022-09-20T05:11:42.312Z,4.23
2022-09-20T05:14:37.723Z,2.33
2022-09-20T05:17:19.121Z,5.43
2022-09-20T05:20:06.420Z,1.70
2022-09-20T05:23:15.251Z,3.47
2022-09-20T05:26:03.260Z,3.93
2022-09-20T05:28:38.192Z,2.80
2022-09-20T05:31:12.726Z,2.17
2022-09-20T05:33:52.058Z,3.70
2022-09-20T05:36:34.387Z,6.37
2022-09-20T05:39:14.404Z,4.43
2022-09-20T05:41:48.122Z,3.50
2022-09-20T05:44:28.404Z,4.03
2022-09-20T05:47:05.149Z,3.40
2022-09-20T05:49:53.161Z,2.50
2022-09-20T05:52:34.879Z,3.47
2022-09-20T05:55:22.902Z,3.83
2022-09-20T05:58:06.731Z,3.13
2022-09-20T06:00:40.875Z,4.73
2022-09-20T06:03:18.378Z,3.67
2022-09-20T06:05:56.563Z,2.93
2022-09-20T06:08:39.185Z,3.60
2022-09-20T06:11:23.025Z,2.47
2022-09-20T06:14:03.719Z,2.70
2022-09-20T06:16:44.235Z,3.87
2022-09-20T06:19:21.411Z,2.60
2022-09-20T06:21:56.005Z,4.00
2022-09-20T06:24:39.786Z,3.30
2022-09-20T06:27:11.775Z,3.80
2022-09-20T06:29:45.895Z,3.27
2022-09-20T06:32:18.165Z,4.23
2022-09-20T06:34:47.836Z,3.47
2022-09-20T06:37:47.950Z,4.33
2022-09-20T06:40:50.729Z,4.13
2022-09-20T06:43:19.377Z,8.13
2022-09-20T06:45:48.489Z,3.50
2022-09-20T06:48:19.294Z,3.67
2022-09-20T06:50:47.659Z,3.70
2022-09-20T06:53:20.494Z,6.37
2022-09-20T06:55:50.004Z,5.33
2022-09-20T06:58:18.510Z,4.30
2022-09-20T07:00:47.031Z,4.97
2022-09-20T07:03:15.190Z,4.17
2022-09-20T07:05:43.521Z,5.70
2022-09-20T07:08:12.108Z,4.83
2022-09-20T07:10:43.422Z,5.07
2022-09-20T07:13:13.878Z,5.90
2022-09-20T07:15:42.221Z,3.73
2022-09-20T07:18:10.352Z,5.53
2022-09-20T07:20:39.364Z,4.40
2022-09-20T07:23:08.161Z,5.87
2022-09-20T07:25:37.661Z,5.70
2022-09-20T07:28:07.473Z,4.53
2022-09-20T07:30:35.726Z,3.60
2022-09-20T07:33:03.825Z,3.83
2022-09-20T07:35:32.486Z,3.87
2022-09-20T07:38:00.912Z,6.93
2022-09-20T07:40:29.086Z,3.60
2022-09-20T07:42:58.123Z,4.50
2022-09-20T07:45:27.893Z,4.07
2022-09-20T07:47:58.174Z,3.90
2022-09-20T07:50:26.803Z,5.00
2022-09-20T07:52:57.075Z,3.70
2022-09-20T07:55:25.330Z,4.57
2022-09-20T07:57:54.366Z,3.80
2022-09-20T08:00:22.525Z,6.20
2022-09-20T08:03:00.092Z,4.80
2022-09-20T08:05:28.444Z,3.63
2022-09-20T08:07:56.892Z,3.70
2022-09-20T08:10:25.265Z,2.80
2022-09-20T08:15:42.158Z,3.00
2022-09-20T08:18:13.381Z,3.53
2022-09-20T08:20:41.613Z,6.17
2022-09-20T08:23:23.016Z,3.50
2022-09-20T08:25:52.376Z,3.03
2022-09-20T08:28:20.507Z,3.28
2022-09-20T08:30:48.692Z,4.40
2022-09-20T08:33:18.571Z,2.73
2022-09-20T08:35:50.546Z,3.57
2022-09-20T08:41:12.484Z,2.03
2022-09-20T08:43:45.601Z,2.50
2022-09-20T08:46:17.464Z,2.85
2022-09-20T08:48:47.671Z,2.83
2022-09-20T08:51:22.862Z,2.47
2022-09-20T08:53:54.013Z,4.17
2022-09-20T08:56:23.544Z,3.42
2022-09-20T08:58:53.222Z,4.47
2022-09-20T09:01:24.660Z,2.50
2022-09-20T09:03:58.816Z,4.20
2022-09-20T09:06:27.204Z,3.45
2022-09-20T09:08:58.228Z,3.03
2022-09-20T09:11:28.067Z,2.47
2022-09-20T09:14:01.431Z,2.93
2022-09-20T09:16:35.381Z,2.30
2022-09-20T09:19:33.976Z,3.73
2022-09-20T09:22:05.373Z,2.47
2022-09-20T09:24:34.985Z,2.53
2022-09-20T09:27:16.405Z,2.38
2022-09-20T09:29:52.740Z,2.70
2022-09-20T09:32:24.496Z,2.67
2022-09-20T09:34:54.178Z,3.53
2022-09-20T09:37:29.081Z,2.17
2022-09-20T09:40:10.464Z,2.75
2022-09-20T09:42:38.687Z,3.35
2022-09-20T09:45:21.584Z,4.60
2022-09-20T09:47:49.687Z,4.00
2022-09-20T09:50:25.071Z,3.38
2022-09-20T09:53:02.855Z,3.28
2022-09-20T09:55:46.309Z,3.20
2022-09-20T09:58:22.772Z,2.70
2022-09-20T10:00:53.270Z,2.65
2022-09-20T10:03:35.408Z,2.47
2022-09-20T10:06:16.682Z,1.50
2022-09-20T10:09:00.468Z,1.45
2022-09-20T10:11:40.093Z,1.50
2022-09-20T10:14:21.670Z,1.52
2022-09-20T10:17:04.418Z,1.00
2022-09-20T10:19:50.310Z,0.93
2022-09-20T10:22:35.171Z,1.42
2022-09-20T10:25:13.099Z,1.35
2022-09-20T10:27:53.665Z,1.45
2022-09-20T10:30:24.823Z,1.00
2022-09-20T10:33:06.084Z,1.45
2022-09-20T10:35:46.087Z,0.90
2022-09-20T10:38:19.779Z,1.88
2022-09-20T10:41:30.635Z,0.88
2022-09-20T10:44:26.764Z,0.88
2022-09-20T10:47:06.152Z,2.13
2022-09-20T10:49:37.443Z,2.80
2022-09-20T10:52:17.568Z,1.05
2022-09-20T10:55:03.599Z,3.35
2022-09-20T10:58:17.972Z,1.73
2022-09-20T11:00:54.345Z,1.60
2022-09-20T11:03:52.399Z,2.05
2022-09-20T11:06:27.115Z,1.17
2022-09-20T11:08:59.313Z,2.20
2022-09-20T11:11:36.126Z,1.33
2022-09-20T11:14:10.889Z,1.33
2022-09-20T11:16:44.137Z,0.90
2022-09-20T11:19:23.443Z,3.78
2022-09-20T11:21:56.572Z,1.33
2022-09-20T11:24:32.580Z,1.10
2022-09-20T11:27:09.447Z,5.35
2022-09-20T11:29:42.217Z,2.20
2022-09-20T11:32:16.702Z,1.65
2022-09-20T11:34:51.975Z,1.17
2022-09-20T11:37:24.178Z,2.25
2022-09-20T11:39:55.649Z,1.33
2022-09-20T11:42:31.233Z,1.17
2022-09-20T11:45:02.289Z,1.10
2022-09-20T11:47:53.958Z,2.13
2022-09-20T11:50:46.928Z,2.03
2022-09-20T11:53:36.676Z,0.85
2022-09-20T11:56:11.681Z,1.95
2022-09-20T11:58:48.289Z,0.80
2022-09-20T12:01:28.424Z,1.67
2022-09-20T12:04:30.594Z,1.13
2022-09-20T12:07:05.905Z,1.60
2022-09-20T12:09:41.321Z,1.73
2022-09-20T12:12:24.087Z,0.88
2022-09-20T12:14:58.533Z,1.00
2022-09-20T12:18:09.747Z,1.05
2022-09-20T12:21:04.232Z,2.03
2022-09-20T12:24:18.153Z,1.50
2022-09-20T12:26:48.477Z,3.53
2022-09-20T12:29:54.265Z,2.03
2022-09-20T12:32:41.798Z,4.32
2022-09-20T12:36:00.561Z,1.55
2022-09-20T12:38:58.602Z,1.58
2022-09-20T12:41:28.936Z,1.90
2022-09-20T12:44:01.723Z,1.00
2022-09-20T12:46:37.989Z,1.02
2022-09-20T12:49:59.472Z,1.08
2022-09-20T12:52:56.253Z,0.70
2022-09-20T12:55:34.960Z,1.50
2022-09-20T12:58:05.837Z,6.28
2022-09-20T13:00:39.469Z,1.27
2022-09-20T13:03:24.611Z,2.10
2022-09-20T13:06:26.238Z,1.48
2022-09-20T13:09:04.233Z,1.27
2022-09-20T13:11:39.671Z,3.92
2022-09-20T13:14:13.861Z,2.42
2022-09-20T13:16:49.118Z,3.08
2022-09-20T13:19:19.626Z,2.25
2022-09-20T13:21:56.900Z,1.55
2022-09-20T13:24:26.862Z,2.85
2022-09-20T13:27:01.836Z,1.73
2022-09-20T13:29:35.023Z,1.20
2022-09-20T13:32:17.003Z,1.88
2022-09-20T13:34:45.636Z,1.85
2022-09-20T13:37:20.998Z,0.95
2022-09-20T13:39:54.729Z,0.80
2022-09-20T13:42:23.881Z,1.33
2022-09-20T13:44:52.739Z,0.52
2022-09-20T13:47:26.648Z,1.20
2022-09-20T13:50:02.088Z,0.40
2022-09-20T13:52:32.967Z,0.40
2022-09-20T13:55:01.575Z,0.82
2022-09-20T13:57:31.499Z,0.40
2022-09-20T14:00:01.617Z,0.38
2022-09-20T14:02:40.327Z,2.40
2022-09-20T14:05:15.829Z,0.40
2022-09-20T14:07:48.237Z,0.30
2022-09-20T14:10:32.077Z,2.72
2022-09-20T14:13:02.237Z,0.68
2022-09-20T14:15:35.422Z,0.47
2022-09-20T14:18:05.299Z,0.77
2022-09-20T14:20:34.351Z,0.57
2022-09-20T14:23:04.103Z,1.50
2022-09-20T14:25:33.809Z,1.48
2022-09-20T14:28:18.409Z,0.98
2022-09-20T14:30:48.551Z,1.45
2022-09-20T14:33:20.472Z,1.35
2022-09-20T14:35:51.249Z,0.82
2022-09-20T14:38:25.966Z,1.58
2022-09-20T14:40:54.526Z,0.95
2022-09-20T14:43:31.363Z,2.03
2022-09-20T14:46:01.766Z,1.05
2022-09-20T14:48:38.568Z,0.40
2022-09-20T14:51:22.033Z,0.47
2022-09-20T14:53:53.347Z,0.90
2022-09-20T14:56:34.546Z,2.38
2022-09-20T14:59:05.497Z,0.65
2022-09-20T15:01:35.371Z,0.47
2022-09-20T15:04:09.263Z,0.38
2022-09-20T15:06:38.994Z,0.57
2022-09-20T15:09:10.593Z,2.10
2022-09-20T15:11:39.304Z,0.85
2022-09-20T15:14:08.299Z,2.28
2022-09-20T15:16:36.557Z,0.63
2022-09-20T15:19:06.113Z,0.43
2022-09-20T15:21:34.467Z,0.85
2022-09-20T15:24:02.987Z,0.40
2022-09-20T15:26:32.872Z,1.15
2022-09-20T15:29:01.161Z,0.63
2022-09-20T15:31:29.552Z,0.60
2022-09-20T15:33:57.975Z,0.60
2022-09-20T15:36:31.835Z,1.38
2022-09-20T15:39:00.500Z,1.10
2022-09-20T15:41:31.239Z,0.70
2022-09-20T15:44:01.616Z,1.42
2022-09-20T15:46:30.290Z,0.65
2022-09-20T15:49:02.873Z,0.73
2022-09-20T15:51:31.264Z,0.95
2022-09-20T15:54:01.111Z,0.68
2022-09-20T15:56:31.363Z,0.90
2022-09-20T15:59:05.281Z,1.13
2022-09-20T16:01:36.725Z,0.60
2022-09-20T16:04:08.057Z,0.60
2022-09-20T16:06:36.506Z,1.95
2022-09-20T16:09:05.836Z,0.85
2022-09-20T16:11:34.173Z,0.60
2022-09-20T16:14:03.663Z,0.80
2022-09-20T16:16:38.969Z,1.00
2022-09-20T16:19:25.493Z,0.65
2022-09-20T16:21:58.165Z,0.60
2022-09-20T16:24:29.051Z,0.73
2022-09-20T16:26:58.548Z,0.68
2022-09-20T16:29:29.425Z,0.30
2022-09-20T16:31:59.215Z,0.85
2022-09-20T16:34:31.221Z,1.10
2022-09-20T16:37:03.199Z,1.98
2022-09-20T16:39:32.581Z,1.50
2022-09-20T16:42:03.658Z,2.67
2022-09-20T16:44:34.451Z,1.90
2022-09-20T16:47:02.909Z,1.27
2022-09-20T16:49:31.171Z,2.10
2022-09-20T16:51:59.469Z,2.33
2022-09-20T16:54:31.751Z,3.05
2022-09-20T16:57:00.510Z,4.15
2022-09-20T16:59:29.021Z,3.20
2022-09-20T17:01:58.753Z,1.98
2022-09-20T17:04:27.080Z,3.17
2022-09-20T17:06:55.740Z,3.63
2022-09-20T17:09:23.837Z,3.67
2022-09-20T17:11:52.166Z,3.22
2022-09-20T17:14:22.026Z,4.32
2022-09-20T17:16:50.380Z,4.90
2022-09-20T17:19:21.708Z,2.35
2022-09-20T17:21:51.707Z,2.28
2022-09-20T17:24:21.541Z,2.38
2022-09-20T17:26:50.971Z,1.90
2022-09-20T17:29:21.000Z,2.53
2022-09-20T17:31:55.144Z,2.95
2022-09-20T17:34:26.428Z,4.28
2022-09-20T17:36:55.330Z,2.58
2022-09-20T17:39:24.144Z,2.63
2022-09-20T17:41:53.305Z,1.50
2022-09-20T17:44:21.427Z,3.10
2022-09-20T17:46:51.502Z,2.60
2022-09-20T17:49:21.554Z,1.42
2022-09-20T17:51:52.750Z,0.98
2022-09-20T17:54:21.935Z,0.93
2022-09-20T17:56:53.439Z,1.73
2022-09-20T17:59:22.169Z,2.15
2022-09-20T18:01:51.494Z,1.77
2022-09-20T18:04:20.839Z,2.42
2022-09-20T18:06:52.572Z,2.67
2022-09-20T18:09:23.270Z,4.25
2022-09-20T18:11:53.480Z,3.90
2022-09-20T18:14:23.717Z,4.95
2022-09-20T18:16:53.019Z,4.20
2022-09-20T18:19:22.922Z,4.05
2022-09-20T18:21:52.848Z,4.05
2022-09-20T18:24:20.975Z,3.78
2022-09-20T18:26:49.415Z,3.75
2022-09-20T18:29:18.431Z,5.15
2022-09-20T18:31:49.114Z,3.78
2022-09-20T18:34:19.281Z,3.33
2022-09-20T18:36:51.515Z,3.05
2022-09-20T18:39:23.249Z,6.68
2022-09-20T18:41:53.026Z,2.80
2022-09-20T18:44:23.221Z,3.10
2022-09-20T18:46:54.165Z,2.95
2022-09-20T18:49:23.031Z,2.25
2022-09-20T18:51:51.755Z,4.40
2022-09-20T18:54:19.991Z,3.53
2022-09-20T18:56:51.521Z,3.55
2022-09-20T18:59:21.488Z,5.72
2022-09-20T19:02:14.466Z,3.70
2022-09-20T19:05:17.184Z,4.97
2022-09-20T19:08:14.062Z,4.72
2022-09-20T19:10:49.087Z,7.32
2022-09-20T19:13:32.341Z,6.22
2022-09-20T19:16:18.298Z,5.43
2022-09-20T19:19:03.712Z,7.35
2022-09-20T19:21:37.940Z,4.38
2022-09-20T19:24:17.891Z,3.50
2022-09-20T19:26:46.516Z,3.45
2022-09-20T19:29:20.181Z,4.15
2022-09-20T19:31:49.728Z,3.22
2022-09-20T19:34:21.331Z,3.72
2022-09-20T19:37:01.213Z,4.85
2022-09-20T19:39:41.947Z,4.85
2022-09-20T19:42:19.563Z,3.70
2022-09-20T19:44:58.201Z,4.90
2022-09-20T19:47:38.087Z,3.78
2022-09-20T19:50:16.219Z,5.22
2022-09-20T19:52:45.277Z,5.05
2022-09-20T19:55:15.113Z,4.25
2022-09-20T19:57:46.886Z,4.43
2022-09-20T20:00:19.864Z,3.05
2022-09-20T20:02:49.163Z,5.13
2022-09-20T20:05:19.760Z,3.55
2022-09-20T20:07:53.502Z,3.30
2022-09-20T20:10:29.099Z,2.83
2022-09-20T20:13:24.942Z,4.13
2022-09-20T20:16:01.384Z,5.25
2022-09-20T20:18:37.595Z,3.22
2022-09-20T20:21:18.158Z,3.10
2022-09-20T20:24:02.067Z,3.83
2022-09-20T20:26:30.382Z,4.20
2022-09-20T20:28:58.646Z,4.88
2022-09-20T20:31:29.471Z,5.03
2022-09-20T20:33:58.275Z,4.28
2022-09-20T20:36:26.482Z,8.68
2022-09-20T20:38:55.087Z,7.40
2022-09-20T20:41:23.689Z,4.75
2022-09-20T20:43:57.055Z,5.28
2022-09-20T20:46:26.296Z,5.30
2022-09-20T20:48:55.872Z,3.97
2022-09-20T20:51:24.260Z,6.70
2022-09-20T20:53:53.857Z,5.50
2022-09-20T20:56:25.636Z,4.80
2022-09-20T20:58:54.299Z,6.50
2022-09-20T21:01:24.309Z,6.13
2022-09-20T21:03:56.025Z,4.35
2022-09-20T21:06:27.211Z,3.13
2022-09-20T21:08:55.380Z,5.38
2022-09-20T21:11:25.580Z,4.28
2022-09-20T21:13:54.692Z,3.35
2022-09-20T21:16:24.549Z,5.38
2022-09-20T21:18:52.872Z,3.23
2022-09-20T21:21:24.371Z,3.45
2022-09-20T21:23:54.433Z,4.45
2022-09-20T21:26:23.779Z,3.95
2022-09-20T21:28:53.916Z,4.70
2022-09-20T21:31:23.958Z,5.15
2022-09-20T21:33:52.509Z,4.93
2022-09-20T21:36:23.168Z,5.30
2022-09-20T21:38:51.403Z,5.78
2022-09-20T21:41:22.130Z,3.57
2022-09-20T21:43:53.909Z,3.50
2022-09-20T21:46:23.809Z,3.58
2022-09-20T21:48:52.092Z,3.50
2022-09-20T21:51:22.918Z,5.60
2022-09-20T21:53:56.323Z,4.23
2022-09-20T21:56:26.229Z,3.85
2022-09-20T21:58:55.220Z,4.28
2022-09-20T22:01:25.146Z,2.97
2022-09-20T22:03:56.513Z,2.20
2022-09-20T22:06:28.283Z,3.73
2022-09-20T22:08:58.553Z,4.10
2022-09-20T22:11:29.521Z,3.40
2022-09-20T22:13:58.911Z,6.03
2022-09-20T22:16:29.165Z,5.60
2022-09-20T22:18:59.183Z,3.70
2022-09-20T22:21:30.483Z,4.80
2022-09-20T22:24:00.844Z,2.47
2022-09-20T22:26:31.977Z,3.23
2022-09-20T22:29:00.390Z,2.80
2022-09-20T22:31:30.193Z,3.87
2022-09-20T22:34:00.220Z,5.30
2022-09-20T22:36:31.578Z,4.33
2022-09-20T22:38:59.782Z,4.03
2022-09-20T22:41:28.665Z,5.03
2022-09-20T22:43:57.575Z,2.93
2022-09-20T22:46:28.101Z,3.13
2022-09-20T22:48:56.678Z,3.57
2022-09-20T22:51:26.646Z,3.35
2022-09-20T22:53:56.520Z,2.77
2022-09-20T22:56:27.549Z,3.50
2022-09-20T22:58:57.627Z,4.57
2022-09-20T23:01:28.151Z,4.43
2022-09-20T23:03:58.808Z,4.67
2022-09-20T23:06:29.430Z,2.85
2022-09-20T23:09:01.068Z,3.58
2022-09-20T23:11:30.226Z,4.07
2022-09-20T23:14:00.627Z,2.43
2022-09-20T23:16:31.340Z,5.10
2022-09-20T23:19:01.276Z,3.33
2022-09-20T23:21:30.636Z,5.80
2022-09-20T23:24:02.409Z,8.60
2022-09-20T23:26:33.281Z,4.30
2022-09-20T23:29:03.213Z,3.67
2022-09-20T23:31:34.593Z,4.80
2022-09-20T23:34:04.832Z,7.70
2022-09-20T23:36:34.637Z,5.63
2022-09-20T23:39:04.253Z,5.18
2022-09-20T23:41:32.673Z,4.80
2022-09-20T23:44:01.817Z,3.08
2022-09-20T23:46:29.948Z,4.18
2022-09-20T23:48:58.068Z,5.30
2022-09-20T23:51:28.451Z,4.40
2022-09-20T23:53:56.687Z,4.32
2022-09-20T23:56:26.803Z,4.10
2022-09-20T23:58:55.281Z,4.25
